Accueil
METAR-TAF:

METAR-TAF

Aéroports :

Aéroport international Abraham González

Ciudad Juárez, Mexique

latitude: 31-38N, longitude: 106-26W, altitude: 1171 m

Observation

Le bulletin a été fait il y a 4 heures et 32 minutes, à 03:40 UTC
Vent 8 kt de est
Température 7°C
Humidité 42%
Pression 1028 hPa
Visibilité: 16.1 km
Ciel clair

METAR: MMCS 020340Z 10008KT 10SM SKC 07/M05 A3036

Heure: 01:12 (08:12 UTC)

Prévision

Le bulletin a été fait il y a 2 heures et 53 minutes, à 05:19 UTC
Prévision valable du 02 à 06 UTC au 03 à 06 UTC
Vent 8 kt de est/sud-est
Visibilité: 10 km
Ciel clair
A partir de 02 à 1800 UTC
Vent 10 kt de sud-est
Visibilité: 10 km
Ciel clair
A partir de 03 à 0300 UTC
Vent 5 kt de sud-est
Visibilité: 10 km
Ciel clair

TAF: MMCS 020519Z 0206/0306 12008KT P6SM SKC FM021800 13010KT P6SM SKC FM030300 13005KT P6SM SKC

Observations et prévisions météorologiques de plus de 4000 aéroports (messages METAR et TAF).

Les stations disponibles sont représentées par des disques jaunes et rouges sur la carte.

Passer la souris dessus pour voir le nom de la station.

Cliquer dessus pour voir les observations et prévisions météorologiques.

Pour changer de carte: cliquez sur les boutons verts avec une croix noire pour zoomer, sur le bouton vert avec un tiret pour effectuer un zoom arrière, ou sur les flèches vertes pour les cartes adjacentes.


METAR-TAF: